Item Display Status Serial CT Sensor

Mooring Depth: 1 m

 

Deployed Sensor

  • Serial Number: 13031
  • NDBC Property Number: 39426
  • Start Date: 12/6/2018 (13:24:51 Z)
  • End Date: Currently Active
Water Temperature [°C]     6 entries per hour
Showing data from 11/19/2019 (02:40:00 Z) to 11/18/2019 (00:00:01 Z)
Previous Next [ Day | 3-Days | 7-Days ]
First Last
Prev [ Day | 3-Days | 7-Days ] Next
First Last

Start Time:     :
End Time:     :     
Time (in GMT) :00 :50 :40 :30 :20 :10
Previous Next [ Day | 3-Days | 7-Days ]
First Last
Prev [ Day | 3-Days | 7-Days ] Next
First Last


123 => good data
MM => data is determined as missing
-- => data not received/configured
Back to Top Back to Top
11/19/2019 03:00 to 2:10 -- -- 27.701 27.691 27.706 27.686
11/19/2019 02:00 to 1:10 27.715 27.720 27.726 27.739 27.751 27.752
11/19/2019 01:00 to 0:10 27.749 27.756 27.787 27.800 27.801 27.832
11/19/2019 00:00 to 23:10 27.862 27.868 27.848 27.842 27.836 27.830
11/18/2019 23:00 to 22:10 27.864 27.888 27.894 27.921 27.919 27.962
11/18/2019 22:00 to 21:10 27.951 27.878 27.869 27.833 27.869 27.847
11/18/2019 21:00 to 20:10 27.898 27.872 27.919 27.937 27.927 27.931
11/18/2019 20:00 to 19:10 27.876 27.862 27.866 27.846 27.804 27.785
11/18/2019 19:00 to 18:10 27.780 27.766 27.719 27.678 27.629 27.661
11/18/2019 18:00 to 17:10 27.632 27.608 27.594 27.598 27.554 27.553
11/18/2019 17:00 to 16:10 27.507 27.490 27.484 27.467 27.457 27.469
11/18/2019 16:00 to 15:10 27.446 27.445 27.441 27.439 27.435 27.431
11/18/2019 15:00 to 14:10 27.433 27.430 27.434 27.433 27.434 27.430
11/18/2019 14:00 to 13:10 27.430 27.430 27.431 27.429 27.429 27.428
11/18/2019 13:00 to 12:10 27.433 27.420 27.438 27.441 27.442 27.433
11/18/2019 12:00 to 11:10 27.424 27.442 27.436 27.454 27.459 27.449
11/18/2019 11:00 to 10:10 27.446 27.455 27.445 27.459 27.454 27.458
11/18/2019 10:00 to 9:10 27.453 27.449 27.463 27.458 27.450 27.456
11/18/2019 09:00 to 8:10 27.448 27.446 27.444 27.446 27.446 27.441
11/18/2019 08:00 to 7:10 27.445 27.455 27.452 27.454 27.456 27.459
11/18/2019 07:00 to 6:10 27.464 27.453 27.442 27.448 27.455 27.452
11/18/2019 06:00 to 5:10 27.454 27.459 27.449 27.447 27.458 27.463
11/18/2019 05:00 to 4:10 27.461 27.464 27.473 27.475 27.477 27.481
11/18/2019 04:00 to 3:10 27.480 27.504 27.490 27.511 27.514 27.493
11/18/2019 03:00 to 2:10 27.498 27.505 27.514 27.515 27.520 27.530
11/18/2019 02:00 to 1:10 27.526 27.533 27.540 27.539 27.542 27.539
11/18/2019 01:00 to 0:10 27.563 27.561 27.562 27.587 27.591 27.596

 

 

 

Conductivity [S/m]     6 entries per hour
Showing data from 11/19/2019 (02:40:00 Z) to 11/18/2019 (00:00:01 Z)
Previous Next [ Day | 3-Days | 7-Days ]
First Last
Prev [ Day | 3-Days | 7-Days ] Next
First Last

Start Time:     :
End Time:     :     
Time (in GMT) :00 :50 :40 :30 :20 :10
Previous Next [ Day | 3-Days | 7-Days ]
First Last
Prev [ Day | 3-Days | 7-Days ] Next
First Last


123 => good data
MM => data is determined as missing
-- => data not received/configured
Back to Top Back to Top
11/19/2019 03:00 to 2:10 -- -- 5.32435 5.32393 5.32597 5.32237
11/19/2019 02:00 to 1:10 5.32656 5.32730 5.32779 5.32887 5.32936 5.32948
11/19/2019 01:00 to 0:10 5.32886 5.32966 5.33228 5.33354 5.33358 5.33690
11/19/2019 00:00 to 23:10 5.34013 5.34091 5.33953 5.33909 5.33890 5.33843
11/18/2019 23:00 to 22:10 5.34186 5.34363 5.34569 5.34802 5.34746 5.35117
11/18/2019 22:00 to 21:10 5.34917 5.34042 5.33890 5.33430 5.33770 5.33674
11/18/2019 21:00 to 20:10 5.33912 5.33751 5.34236 5.34463 5.34178 5.34354
11/18/2019 20:00 to 19:10 5.33938 5.33586 5.33587 5.32924 5.32719 5.32232
11/18/2019 19:00 to 18:10 5.32106 5.31898 5.31484 5.30980 5.30458 5.30770
11/18/2019 18:00 to 17:10 5.30433 5.30162 5.29994 5.30032 5.29615 5.29571
11/18/2019 17:00 to 16:10 5.29124 5.28933 5.28865 5.28697 5.28601 5.28726
11/18/2019 16:00 to 15:10 5.28487 5.28477 5.28434 5.28424 5.28377 5.28334
11/18/2019 15:00 to 14:10 5.28361 5.28314 5.28360 5.28340 5.28356 5.28293
11/18/2019 14:00 to 13:10 5.28311 5.28297 5.28310 5.28302 5.28313 5.28320
11/18/2019 13:00 to 12:10 5.28335 5.28261 5.28366 5.28415 5.28433 5.28354
11/18/2019 12:00 to 11:10 5.28271 5.28434 5.28371 5.28551 5.28602 5.28498
11/18/2019 11:00 to 10:10 5.28438 5.28537 5.28417 5.28533 5.28481 5.28525
11/18/2019 10:00 to 9:10 5.28422 5.28385 5.28510 5.28468 5.28359 5.28394
11/18/2019 09:00 to 8:10 5.28300 5.28259 5.28234 5.28196 5.28162 5.28120
11/18/2019 08:00 to 7:10 5.28175 5.28264 5.28252 5.28244 5.28279 5.28279
11/18/2019 07:00 to 6:10 5.28323 5.28204 5.28073 5.28130 5.28178 5.28151
11/18/2019 06:00 to 5:10 5.28123 5.28183 5.28089 5.28084 5.28172 5.28227
11/18/2019 05:00 to 4:10 5.28169 5.28207 5.28305 5.28320 5.28351 5.28383
11/18/2019 04:00 to 3:10 5.28362 5.28602 5.28431 5.28652 5.28695 5.28474
11/18/2019 03:00 to 2:10 5.28513 5.28599 5.28712 5.28698 5.28760 5.28848
11/18/2019 02:00 to 1:10 5.28797 5.28905 5.28959 5.28930 5.28962 5.28952
11/18/2019 01:00 to 0:10 5.29170 5.29130 5.29141 5.29376 5.29463 5.29480

 

 

 

Salinity [psu]     6 entries per hour
Showing data from 11/19/2019 (02:40:00 Z) to 11/18/2019 (00:00:01 Z)
Previous Next [ Day | 3-Days | 7-Days ]
First Last
Prev [ Day | 3-Days | 7-Days ] Next
First Last

Start Time:     :
End Time:     :     
Time (in GMT) :00 :50 :40 :30 :20 :10
Previous Next [ Day | 3-Days | 7-Days ]
First Last
Prev [ Day | 3-Days | 7-Days ] Next
First Last


123 => good data
MM => data is determined as missing
-- => data not received/configured
Back to Top Back to Top
11/19/2019 03:00 to 2:10 -- -- 33.13 33.13 33.13 33.12
11/19/2019 02:00 to 1:10 33.13 33.13 33.13 33.13 33.13 33.13
11/19/2019 01:00 to 0:10 33.12 33.12 33.12 33.12 33.12 33.12
11/19/2019 00:00 to 23:10 33.12 33.12 33.13 33.13 33.13 33.13
11/18/2019 23:00 to 22:10 33.13 33.13 33.14 33.14 33.13 33.13
11/18/2019 22:00 to 21:10 33.12 33.11 33.11 33.10 33.10 33.11
11/18/2019 21:00 to 20:10 33.09 33.10 33.10 33.10 33.09 33.10
11/18/2019 20:00 to 19:10 33.11 33.09 33.09 33.06 33.07 33.05
11/18/2019 19:00 to 18:10 33.05 33.04 33.05 33.04 33.04 33.04
11/18/2019 18:00 to 17:10 33.04 33.03 33.03 33.03 33.03 33.03
11/18/2019 17:00 to 16:10 33.03 33.03 33.03 33.03 33.03 33.03
11/18/2019 16:00 to 15:10 33.03 33.03 33.03 33.03 33.03 33.03
11/18/2019 15:00 to 14:10 33.03 33.03 33.03 33.03 33.03 33.03
11/18/2019 14:00 to 13:10 33.03 33.03 33.03 33.03 33.03 33.03
11/18/2019 13:00 to 12:10 33.03 33.03 33.03 33.03 33.03 33.03
11/18/2019 12:00 to 11:10 33.03 33.03 33.03 33.03 33.03 33.03
11/18/2019 11:00 to 10:10 33.03 33.03 33.03 33.02 33.02 33.02
11/18/2019 10:00 to 9:10 33.02 33.02 33.02 33.02 33.02 33.02
11/18/2019 09:00 to 8:10 33.02 33.01 33.01 33.01 33.01 33.01
11/18/2019 08:00 to 7:10 33.01 33.01 33.01 33.01 33.01 33.01
11/18/2019 07:00 to 6:10 33.01 33.01 33.00 33.00 33.00 33.00
11/18/2019 06:00 to 5:10 33.00 33.00 33.00 33.00 33.00 33.00
11/18/2019 05:00 to 4:10 33.00 33.00 33.00 33.00 33.00 33.00
11/18/2019 04:00 to 3:10 33.00 33.00 33.00 33.00 33.00 33.00
11/18/2019 03:00 to 2:10 32.99 33.00 33.00 33.00 33.00 33.00
11/18/2019 02:00 to 1:10 33.00 33.00 33.00 33.00 33.00 33.00
11/18/2019 01:00 to 0:10 33.00 32.99 32.99 32.99 33.00 32.99